Time;durP1;ratioP1;P1;durP2;ratioP2;P2;SDS_P1;SDS_P2;PMS_P1;PMS_P2;Temp;Humidity;BMP_temperature;BMP_pressure;BME280_temperature;BME280_humidity;BME280_pressure;Samples;Min_cycle;Max_cycle;Signal;HPM_P1;HPM_P2
2023/06/16 00:02:06;;;;;;;5.55;4.25;;;13.80;99.90;;;;;;5062085;28;20180;-82
2023/06/16 00:04:32;;;;;;;8.20;4.53;;;13.70;99.90;;;;;;5048851;28;20051;-83
2023/06/16 00:07:01;;;;;;;9.27;5.10;;;13.70;99.90;;;;;;5040263;28;20044;-82
2023/06/16 00:09:27;;;;;;;9.88;6.18;;;13.60;99.90;;;;;;5055020;28;20044;-82
2023/06/16 00:11:54;;;;;;;8.75;6.28;;;13.60;99.90;;;;;;5047051;28;20329;-83
2023/06/16 00:14:20;;;;;;;7.07;4.63;;;13.60;99.90;;;;;;5040113;28;20036;-82
2023/06/16 00:16:47;;;;;;;8.73;5.47;;;13.50;99.90;;;;;;5043601;28;20108;-82
2023/06/16 00:19:13;;;;;;;5.75;5.15;;;13.50;99.90;;;;;;5043532;28;20035;-83
2023/06/16 00:21:41;;;;;;;10.63;5.80;;;13.50;99.90;;;;;;5043280;28;20043;-82
2023/06/16 00:24:08;;;;;;;9.30;5.68;;;13.40;99.90;;;;;;5044742;28;20040;-82
2023/06/16 00:26:35;;;;;;;7.63;5.22;;;13.40;99.90;;;;;;5054854;28;20376;-82
2023/06/16 00:29:02;;;;;;;9.15;5.75;;;13.30;99.90;;;;;;5054123;28;20048;-82
2023/06/16 00:31:30;;;;;;;8.48;4.95;;;13.30;99.90;;;;;;5049970;28;20044;-82
2023/06/16 00:33:56;;;;;;;6.95;5.28;;;13.20;99.90;;;;;;5039974;28;20039;-82
2023/06/16 00:36:21;;;;;;;9.40;6.47;;;13.20;99.90;;;;;;5062283;28;20499;-82
2023/06/16 00:38:47;;;;;;;11.75;6.68;;;13.10;99.90;;;;;;5038482;28;20175;-83
2023/06/16 00:41:13;;;;;;;9.40;7.00;;;13.10;99.90;;;;;;5055695;28;20036;-82
2023/06/16 00:43:39;;;;;;;8.02;6.88;;;13.20;99.90;;;;;;5060586;28;20105;-82
2023/06/16 00:46:07;;;;;;;8.48;7.22;;;13.20;99.90;;;;;;5043094;28;20516;-82
2023/06/16 00:48:33;;;;;;;7.32;5.70;;;13.10;99.90;;;;;;5041694;28;20543;-82
2023/06/16 00:51:02;;;;;;;10.30;7.18;;;13.10;99.90;;;;;;5041413;28;20045;-83
2023/06/16 00:53:30;;;;;;;10.35;6.03;;;13.00;99.90;;;;;;5058230;28;20158;-82
2023/06/16 00:55:57;;;;;;;9.02;6.68;;;13.00;99.90;;;;;;5055147;28;20166;-82
2023/06/16 00:58:24;;;;;;;6.75;5.60;;;13.00;99.90;;;;;;5052554;28;20056;-83
2023/06/16 01:00:51;;;;;;;6.95;6.13;;;13.00;99.90;;;;;;5042823;28;20040;-82
2023/06/16 01:03:17;;;;;;;9.23;7.63;;;13.00;99.90;;;;;;5041228;28;20080;-82
2023/06/16 01:05:43;;;;;;;11.90;7.53;;;13.00;99.90;;;;;;5041325;28;20044;-82
2023/06/16 01:08:21;;;;;;;10.90;6.32;;;13.10;99.90;;;;;;5055338;28;20495;-81
2023/06/16 01:11:19;;;;;;;10.95;7.22;;;12.90;99.90;;;;;;5040565;28;20076;-82
2023/06/16 01:14:05;;;;;;;7.18;5.70;;;12.90;99.90;;;;;;5030618;28;20616;-82
2023/06/16 01:16:31;;;;;;;8.13;6.00;;;12.90;99.90;;;;;;5051294;28;20598;-82
2023/06/16 01:19:08;;;;;;;9.73;5.97;;;12.80;99.90;;;;;;5053786;28;20491;-82
2023/06/16 01:21:48;;;;;;;8.27;7.07;;;12.80;99.90;;;;;;5036994;28;20037;-82
2023/06/16 01:24:15;;;;;;;10.10;6.93;;;12.70;99.90;;;;;;5048838;28;20071;-82
2023/06/16 01:26:45;;;;;;;9.23;6.85;;;12.70;99.90;;;;;;5040115;28;20048;-82
2023/06/16 01:29:12;;;;;;;11.55;7.65;;;12.70;99.90;;;;;;5042643;28;21048;-82
2023/06/16 01:31:41;;;;;;;9.65;6.40;;;12.70;99.90;;;;;;5050745;28;20170;-82
2023/06/16 01:34:08;;;;;;;10.93;7.00;;;12.60;99.90;;;;;;5037368;28;20032;-82
2023/06/16 01:36:37;;;;;;;7.68;6.80;;;12.60;99.90;;;;;;5056928;28;20040;-83
2023/06/16 01:39:04;;;;;;;9.27;7.32;;;12.60;99.90;;;;;;5051846;28;20456;-83
2023/06/16 01:41:30;;;;;;;9.45;7.00;;;12.50;99.90;;;;;;5057174;28;20076;-82
2023/06/16 01:43:56;;;;;;;9.68;6.88;;;12.50;99.90;;;;;;5035300;28;20412;-82
2023/06/16 01:46:23;;;;;;;9.40;7.80;;;12.50;99.90;;;;;;5066762;28;20697;-82
2023/06/16 01:48:49;;;;;;;10.13;7.95;;;12.40;99.90;;;;;;5052456;28;20052;-82
2023/06/16 01:51:15;;;;;;;9.93;8.63;;;12.50;99.90;;;;;;5059291;28;20063;-82
2023/06/16 01:53:41;;;;;;;10.63;8.35;;;12.50;99.90;;;;;;5039063;28;20036;-82
2023/06/16 01:56:11;;;;;;;9.15;7.20;;;12.40;99.90;;;;;;5041562;28;20044;-82
2023/06/16 01:58:36;;;;;;;10.27;8.35;;;12.30;99.90;;;;;;5067354;28;20480;-82
2023/06/16 02:01:07;;;;;;;13.52;9.98;;;12.30;99.90;;;;;;5052392;28;20059;-82
2023/06/16 02:04:08;;;;;;;11.60;10.20;;;12.30;99.90;;;;;;5038034;28;20474;-83
2023/06/16 02:06:40;;;;;;;10.70;9.35;;;12.20;99.90;;;;;;5038818;28;20391;-82
2023/06/16 02:09:09;;;;;;;11.43;8.35;;;12.20;99.90;;;;;;5034199;28;20235;-82
2023/06/16 02:11:35;;;;;;;13.90;11.57;;;12.20;99.90;;;;;;5037893;28;20142;-82
2023/06/16 02:14:02;;;;;;;13.00;11.10;;;12.20;99.90;;;;;;5036890;28;20125;-82
2023/06/16 02:16:29;;;;;;;14.57;10.70;;;12.30;99.90;;;;;;5040156;28;20431;-82
2023/06/16 02:18:55;;;;;;;12.35;10.13;;;12.20;99.90;;;;;;5041036;28;20412;-82
2023/06/16 02:21:21;;;;;;;12.40;9.82;;;12.10;99.90;;;;;;5054736;28;20037;-82
2023/06/16 02:23:50;;;;;;;13.07;11.13;;;12.10;99.90;;;;;;5047455;28;20399;-83
2023/06/16 02:26:16;;;;;;;13.05;10.10;;;12.10;99.90;;;;;;5044845;28;20482;-82
2023/06/16 02:28:41;;;;;;;14.68;10.82;;;12.10;99.90;;;;;;5049862;28;20143;-82
2023/06/16 02:31:07;;;;;;;13.50;11.55;;;12.10;99.90;;;;;;5053083;28;20399;-82
2023/06/16 02:33:33;;;;;;;14.52;12.35;;;12.00;99.90;;;;;;5050012;28;20044;-82
2023/06/16 02:35:58;;;;;;;13.82;12.35;;;12.00;99.90;;;;;;5054225;28;20033;-82
2023/06/16 02:38:24;;;;;;;14.05;12.55;;;12.00;99.90;;;;;;5050432;28;20139;-82
2023/06/16 02:40:50;;;;;;;14.50;12.00;;;12.00;99.90;;;;;;5047804;28;20076;-82
2023/06/16 02:43:15;;;;;;;13.48;12.00;;;11.90;99.90;;;;;;5039057;28;20055;-83
2023/06/16 02:45:41;;;;;;;14.05;11.75;;;11.90;99.90;;;;;;5036891;28;20151;-83
2023/06/16 02:48:07;;;;;;;13.77;12.27;;;11.80;99.90;;;;;;5034210;28;20591;-82
2023/06/16 02:50:32;;;;;;;13.80;12.32;;;11.80;99.90;;;;;;5050902;28;20076;-82
2023/06/16 02:52:58;;;;;;;16.35;12.38;;;11.70;99.90;;;;;;5036938;28;20089;-82
2023/06/16 02:55:24;;;;;;;15.38;13.40;;;11.80;99.90;;;;;;5041479;28;20059;-82
2023/06/16 02:57:50;;;;;;;13.80;12.32;;;11.70;99.90;;;;;;5050608;28;20051;-83
2023/06/16 03:00:16;;;;;;;14.27;11.30;;;11.70;99.90;;;;;;5048055;28;20041;-82
2023/06/16 03:02:45;;;;;;;14.32;11.70;;;11.70;99.90;;;;;;5052438;28;20036;-83
2023/06/16 03:05:10;;;;;;;13.13;11.65;;;11.70;99.90;;;;;;5055468;28;20467;-82
2023/06/16 03:07:36;;;;;;;12.05;10.18;;;11.70;99.90;;;;;;5049940;28;20084;-82
2023/06/16 03:10:03;;;;;;;12.55;10.65;;;11.70;99.90;;;;;;5035923;28;20044;-82
2023/06/16 03:12:28;;;;;;;17.25;14.77;;;11.70;99.90;;;;;;5035750;28;20280;-81
2023/06/16 03:14:54;;;;;;;16.30;14.35;;;11.70;99.90;;;;;;5051958;28;20036;-82
2023/06/16 03:17:20;;;;;;;15.18;13.00;;;11.80;99.90;;;;;;5049606;28;20025;-82
2023/06/16 03:19:49;;;;;;;16.13;13.68;;;11.80;99.90;;;;;;5039396;28;20036;-82
2023/06/16 03:22:15;;;;;;;15.88;13.48;;;11.80;99.90;;;;;;5044776;28;20416;-82
2023/06/16 03:24:43;;;;;;;18.10;14.75;;;11.80;99.90;;;;;;5037273;28;20040;-82
2023/06/16 03:27:09;;;;;;;16.65;14.57;;;11.90;99.90;;;;;;5038167;28;20037;-82
2023/06/16 03:29:36;;;;;;;17.88;15.90;;;11.80;99.90;;;;;;5068179;28;20059;-83
2023/06/16 03:32:05;;;;;;;18.02;16.10;;;12.00;99.90;;;;;;5044416;28;20041;-82
2023/06/16 03:34:31;;;;;;;18.05;15.73;;;12.00;99.90;;;;;;5037968;28;20041;-82
2023/06/16 03:36:57;;;;;;;22.63;17.70;;;12.20;99.90;;;;;;5056621;28;20048;-83
2023/06/16 03:39:23;;;;;;;21.30;17.25;;;12.30;99.90;;;;;;5037115;28;20107;-83
2023/06/16 03:41:49;;;;;;;23.10;17.13;;;12.40;99.90;;;;;;5039994;28;20037;-82
2023/06/16 03:44:15;;;;;;;20.20;16.60;;;12.40;99.90;;;;;;5051049;28;20131;-82
2023/06/16 03:46:40;;;;;;;19.95;17.75;;;12.40;99.90;;;;;;5042798;28;20040;-82
2023/06/16 03:49:09;;;;;;;18.40;15.88;;;12.50;99.90;;;;;;5040931;28;20053;-83
2023/06/16 03:51:34;;;;;;;19.35;15.75;;;12.50;99.90;;;;;;5061808;28;20239;-82
2023/06/16 03:54:00;;;;;;;16.45;13.80;;;12.50;99.90;;;;;;5043519;28;20120;-83
2023/06/16 03:56:26;;;;;;;17.25;15.38;;;12.50;99.90;;;;;;5037412;28;20380;-82
2023/06/16 03:58:52;;;;;;;22.60;16.42;;;12.50;99.90;;;;;;5043689;28;20451;-82
2023/06/16 04:01:21;;;;;;;18.98;16.92;;;12.60;99.90;;;;;;5054654;28;20231;-82
2023/06/16 04:03:47;;;;;;;21.13;15.85;;;12.80;99.90;;;;;;5041319;28;20053;-83
2023/06/16 04:06:12;;;;;;;22.90;19.20;;;12.80;99.90;;;;;;5050764;28;20048;-82
2023/06/16 04:08:38;;;;;;;24.25;18.27;;;13.00;99.90;;;;;;5066657;28;20510;-82
2023/06/16 04:11:04;;;;;;;22.85;19.00;;;13.10;99.90;;;;;;5052851;28;20451;-82
2023/06/16 04:13:33;;;;;;;25.73;19.70;;;13.30;99.90;;;;;;5041517;28;20052;-82
2023/06/16 04:15:59;;;;;;;23.15;18.83;;;13.40;99.90;;;;;;5044194;28;20440;-82
2023/06/16 04:18:25;;;;;;;24.70;19.25;;;13.50;99.90;;;;;;5043359;28;20040;-81
2023/06/16 04:20:53;;;;;;;23.95;19.15;;;13.60;99.90;;;;;;5054841;28;20143;-81
2023/06/16 04:23:19;;;;;;;22.33;19.48;;;13.80;99.90;;;;;;5040106;28;20040;-81
2023/06/16 04:25:45;;;;;;;23.90;19.00;;;13.90;99.90;;;;;;5053226;28;20036;-82
2023/06/16 04:28:13;;;;;;;22.83;19.40;;;14.00;99.90;;;;;;5065873;28;20040;-81
2023/06/16 04:30:43;;;;;;;22.77;18.80;;;14.00;99.90;;;;;;5037872;28;20075;-81
2023/06/16 04:33:09;;;;;;;22.20;18.00;;;14.10;99.90;;;;;;5055562;28;20025;-82
2023/06/16 04:35:36;;;;;;;23.10;18.35;;;14.10;99.90;;;;;;5036052;28;20040;-82
2023/06/16 04:38:06;;;;;;;22.25;18.40;;;14.20;99.90;;;;;;5044100;28;20452;-81
2023/06/16 04:40:33;;;;;;;19.17;16.75;;;14.30;99.90;;;;;;5040433;28;20451;-82
2023/06/16 04:42:59;;;;;;;24.75;19.85;;;14.40;99.90;;;;;;5060813;28;20122;-82
2023/06/16 04:45:24;;;;;;;22.65;18.30;;;14.50;99.90;;;;;;5056535;28;20123;-82
2023/06/16 04:47:50;;;;;;;24.08;19.60;;;14.60;99.90;;;;;;5045268;28;20032;-82
2023/06/16 04:50:16;;;;;;;23.88;19.48;;;14.60;99.90;;;;;;5056381;28;20031;-82
2023/06/16 04:52:42;;;;;;;22.83;19.48;;;14.80;99.90;;;;;;5057081;28;20119;-82
2023/06/16 04:55:08;;;;;;;24.58;19.80;;;14.80;99.90;;;;;;5050159;28;20042;-82
2023/06/16 04:57:35;;;;;;;28.80;22.25;;;14.90;99.90;;;;;;5057410;28;20036;-82
2023/06/16 05:00:05;;;;;;;28.58;21.77;;;15.00;99.90;;;;;;5062490;28;20479;-82
2023/06/16 05:02:30;;;;;;;32.38;23.30;;;15.00;99.90;;;;;;5055314;28;20166;-82
2023/06/16 05:04:56;;;;;;;29.55;25.30;;;15.20;99.90;;;;;;5047741;28;20054;-82
2023/06/16 05:07:21;;;;;;;28.05;22.80;;;15.20;99.90;;;;;;5064097;28;20378;-82
2023/06/16 05:09:47;;;;;;;27.13;20.63;;;15.40;99.90;;;;;;5048492;28;20463;-82
2023/06/16 05:12:13;;;;;;;29.55;23.00;;;15.40;99.90;;;;;;5044976;28;20115;-81
2023/06/16 05:14:38;;;;;;;32.28;25.50;;;15.50;99.90;;;;;;5075477;28;20149;-82
2023/06/16 05:17:04;;;;;;;33.50;25.80;;;15.60;99.90;;;;;;5045360;28;20434;-81
2023/06/16 05:19:32;;;;;;;33.78;24.60;;;15.70;99.90;;;;;;5056924;28;20032;-82
2023/06/16 05:21:58;;;;;;;34.10;26.88;;;15.80;99.90;;;;;;5043391;28;20047;-82
2023/06/16 05:24:24;;;;;;;32.05;26.20;;;15.80;99.90;;;;;;5051668;28;20045;-82
2023/06/16 05:26:51;;;;;;;34.83;28.30;;;15.90;99.90;;;;;;5045953;28;20036;-82
2023/06/16 05:29:17;;;;;;;33.42;26.70;;;16.00;99.90;;;;;;5054395;28;20040;-82
2023/06/16 05:31:42;;;;;;;35.40;26.08;;;16.20;99.90;;;;;;5046603;28;20059;-82
2023/06/16 05:34:08;;;;;;;31.55;25.05;;;16.40;99.90;;;;;;5038502;28;20067;-82
2023/06/16 05:36:37;;;;;;;34.80;27.90;;;16.40;99.90;;;;;;5039507;28;20452;-82
2023/06/16 05:39:03;;;;;;;33.38;25.25;;;16.50;99.90;;;;;;5047133;28;20816;-82
2023/06/16 05:41:29;;;;;;;30.00;24.75;;;16.70;99.90;;;;;;5040748;28;20072;-82
2023/06/16 05:43:55;;;;;;;28.60;23.33;;;16.80;99.90;;;;;;5041003;28;20083;-82
2023/06/16 05:46:21;;;;;;;28.95;22.80;;;16.70;99.90;;;;;;5056529;28;20036;-82
2023/06/16 05:48:47;;;;;;;26.52;23.35;;;16.80;99.90;;;;;;5041518;28;20041;-82
2023/06/16 05:51:13;;;;;;;25.00;20.80;;;16.90;99.90;;;;;;5041965;28;20487;-82
2023/06/16 05:53:39;;;;;;;25.25;20.30;;;17.10;99.90;;;;;;5040798;28;20045;-82
2023/06/16 05:56:04;;;;;;;28.38;21.70;;;17.20;99.90;;;;;;5047023;28;20036;-82
2023/06/16 05:58:33;;;;;;;31.88;18.70;;;17.30;99.90;;;;;;5051450;28;20769;-82
2023/06/16 06:00:59;;;;;;;24.30;19.00;;;17.40;99.90;;;;;;5035640;28;20055;-82
2023/06/16 06:03:25;;;;;;;24.65;18.80;;;17.40;99.90;;;;;;5038278;28;20041;-82
2023/06/16 06:05:50;;;;;;;24.15;17.63;;;17.60;99.90;;;;;;5039166;28;20051;-82
2023/06/16 06:08:16;;;;;;;20.20;16.20;;;17.70;99.90;;;;;;5044097;28;20201;-81
2023/06/16 06:10:41;;;;;;;22.80;17.02;;;17.80;99.90;;;;;;5035792;28;20101;-82
2023/06/16 06:13:10;;;;;;;21.10;15.35;;;17.70;99.90;;;;;;5035622;28;20044;-81
2023/06/16 06:15:35;;;;;;;26.67;16.50;;;17.70;99.90;;;;;;5033257;28;20119;-82
2023/06/16 06:18:01;;;;;;;24.05;18.08;;;17.80;99.90;;;;;;5048643;28;20185;-82
2023/06/16 06:20:27;;;;;;;20.10;17.65;;;17.90;99.90;;;;;;5055545;28;20132;-82
2023/06/16 06:22:52;;;;;;;19.77;16.30;;;17.90;99.90;;;;;;5040116;28;20049;-81
2023/06/16 06:25:18;;;;;;;19.13;16.63;;;18.00;99.90;;;;;;5049498;28;20045;-82
2023/06/16 06:27:43;;;;;;;19.02;16.15;;;18.20;99.90;;;;;;5033479;28;20252;-82
2023/06/16 06:30:09;;;;;;;18.77;14.73;;;18.10;99.90;;;;;;5051211;28;20047;-82
2023/06/16 06:32:35;;;;;;;19.67;15.07;;;18.20;99.90;;;;;;5046342;28;20060;-81
2023/06/16 06:35:00;;;;;;;18.05;14.75;;;18.30;99.90;;;;;;5042021;28;20191;-82
2023/06/16 06:37:30;;;;;;;16.27;14.45;;;18.50;99.90;;;;;;5041043;28;20044;-82
2023/06/16 06:39:56;;;;;;;15.55;12.32;;;18.50;99.90;;;;;;5055918;28;20534;-82
2023/06/16 06:42:23;;;;;;;14.82;12.45;;;18.50;99.90;;;;;;5052096;28;20344;-82
2023/06/16 06:44:49;;;;;;;14.75;13.25;;;18.70;99.90;;;;;;5049762;28;20028;-82
2023/06/16 06:47:18;;;;;;;18.35;12.50;;;18.80;99.90;;;;;;5037592;28;20045;-82
2023/06/16 06:49:43;;;;;;;18.05;13.25;;;18.90;99.90;;;;;;5034664;28;20138;-81
2023/06/16 06:52:09;;;;;;;15.63;12.20;;;19.10;99.90;;;;;;5036540;28;20452;-81
2023/06/16 06:54:34;;;;;;;14.60;12.07;;;19.00;99.90;;;;;;5034421;28;20636;-81
2023/06/16 06:57:00;;;;;;;17.33;12.77;;;19.10;99.90;;;;;;5047974;28;20072;-81
2023/06/16 06:59:26;;;;;;;16.60;12.52;;;19.30;99.90;;;;;;5034261;28;20495;-82
2023/06/16 07:01:51;;;;;;;14.68;11.20;;;19.30;99.90;;;;;;5037353;28;20045;-82
2023/06/16 07:04:17;;;;;;;14.02;11.23;;;19.30;99.90;;;;;;5058516;28;20055;-82
2023/06/16 07:06:46;;;;;;;12.45;10.90;;;19.50;99.90;;;;;;5035244;28;20071;-82
2023/06/16 07:09:11;;;;;;;14.07;9.85;;;19.60;99.90;;;;;;5037133;28;20040;-82
2023/06/16 07:11:37;;;;;;;10.55;8.07;;;19.40;99.90;;;;;;5049810;28;20253;-82
2023/06/16 07:14:04;;;;;;;12.32;9.73;;;19.70;99.90;;;;;;5036857;28;20457;-81
2023/06/16 07:16:30;;;;;;;10.40;9.30;;;19.70;99.90;;;;;;5045611;28;20056;-82
2023/06/16 07:18:56;;;;;;;10.80;9.13;;;19.80;99.90;;;;;;5052467;28;20143;-82
2023/06/16 07:21:21;;;;;;;11.32;10.13;;;19.90;99.90;;;;;;5051382;28;20048;-82
2023/06/16 07:23:47;;;;;;;12.43;9.13;;;19.90;99.90;;;;;;5043140;28;20139;-82
2023/06/16 07:26:13;;;;;;;12.32;9.43;;;20.00;99.90;;;;;;5051352;28;20049;-81
2023/06/16 07:28:40;;;;;;;15.13;10.45;;;20.10;99.90;;;;;;5042109;28;20475;-82
2023/06/16 07:31:05;;;;;;;12.35;10.30;;;20.10;99.90;;;;;;5055189;28;20685;-81
2023/06/16 07:33:31;;;;;;;13.00;10.20;;;20.30;99.90;;;;;;5042727;28;20296;-82
2023/06/16 07:35:56;;;;;;;12.90;10.27;;;20.10;99.90;;;;;;5048786;28;20080;-82
2023/06/16 07:38:22;;;;;;;14.52;10.88;;;20.10;99.90;;;;;;5042541;28;20499;-82
2023/06/16 07:40:47;;;;;;;14.95;11.18;;;20.30;99.90;;;;;;5042880;28;20175;-81
2023/06/16 07:43:13;;;;;;;11.60;9.23;;;20.30;99.90;;;;;;5040363;28;20352;-82
2023/06/16 07:45:42;;;;;;;11.48;10.30;;;20.50;99.90;;;;;;5053523;28;20229;-82
2023/06/16 07:48:09;;;;;;;11.85;10.10;;;20.50;99.90;;;;;;5056864;28;20086;-82
2023/06/16 07:50:35;;;;;;;13.65;10.35;;;20.50;99.90;;;;;;5041417;28;20046;-82
2023/06/16 07:53:00;;;;;;;12.70;9.68;;;20.50;99.90;;;;;;5037880;28;20104;-81
2023/06/16 07:55:26;;;;;;;12.23;9.45;;;20.30;99.90;;;;;;5058937;28;20095;-82
2023/06/16 07:57:52;;;;;;;12.10;9.00;;;20.50;99.90;;;;;;5050342;28;20037;-82
2023/06/16 08:00:19;;;;;;;11.18;9.38;;;20.60;99.90;;;;;;5036334;28;20135;-81
2023/06/16 08:02:45;;;;;;;11.25;8.88;;;20.70;99.90;;;;;;5042747;28;20037;-82
2023/06/16 08:05:12;;;;;;;12.43;8.65;;;21.00;99.90;;;;;;5042415;28;20124;-82
2023/06/16 08:07:38;;;;;;;9.70;8.70;;;20.70;99.90;;;;;;5041163;28;20040;-82
2023/06/16 08:10:05;;;;;;;8.60;7.70;;;20.90;99.90;;;;;;5064390;28;20115;-82
2023/06/16 08:12:32;;;;;;;10.70;6.80;;;21.00;99.90;;;;;;5043096;28;20396;-82
2023/06/16 08:14:58;;;;;;;8.20;7.15;;;20.90;99.90;;;;;;5052742;28;20479;-81
2023/06/16 08:17:23;;;;;;;8.80;5.70;;;21.00;99.90;;;;;;5041036;28;20028;-82
2023/06/16 08:19:49;;;;;;;9.13;5.97;;;21.30;99.90;;;;;;5051760;28;20120;-82
2023/06/16 08:22:15;;;;;;;9.48;6.38;;;21.50;99.90;;;;;;5039919;28;20453;-82
2023/06/16 08:24:42;;;;;;;8.50;6.18;;;21.30;99.90;;;;;;5043392;28;20472;-82
2023/06/16 08:27:08;;;;;;;8.38;5.68;;;21.40;99.90;;;;;;5036267;28;20044;-82
2023/06/16 08:29:34;;;;;;;6.85;5.38;;;21.50;99.90;;;;;;5042376;28;20283;-82
2023/06/16 08:32:00;;;;;;;5.70;5.05;;;21.60;99.90;;;;;;5053256;28;20041;-82
2023/06/16 08:34:26;;;;;;;8.18;5.70;;;21.80;1.00;;;;;;5039167;28;20123;-82
2023/06/16 08:36:52;;;;;;;8.70;5.05;;;21.80;99.90;;;;;;5049463;28;20124;-82
2023/06/16 08:39:18;;;;;;;6.47;4.97;;;21.60;28.60;;;;;;5058497;28;20052;-82
2023/06/16 08:41:45;;;;;;;5.35;4.60;;;21.60;1.00;;;;;;5049026;28;20052;-82
2023/06/16 08:44:14;;;;;;;5.57;4.22;;;21.60;1.00;;;;;;5058685;28;20045;-82
2023/06/16 08:46:40;;;;;;;9.05;4.70;;;21.90;1.00;;;;;;5040771;28;20041;-82
2023/06/16 08:49:06;;;;;;;6.35;4.05;;;21.80;99.90;;;;;;5042007;28;20460;-82
2023/06/16 08:51:33;;;;;;;4.82;3.67;;;21.90;99.90;;;;;;5042287;28;20487;-82
2023/06/16 08:54:02;;;;;;;5.38;3.38;;;21.90;99.90;;;;;;5050979;28;20044;-82
2023/06/16 08:56:32;;;;;;;7.43;3.70;;;21.80;99.90;;;;;;5053316;28;20051;-82
2023/06/16 08:59:01;;;;;;;5.80;3.55;;;21.70;99.90;;;;;;5051524;28;20036;-82
2023/06/16 09:01:28;;;;;;;5.57;3.20;;;21.90;99.90;;;;;;5050685;28;20380;-82
2023/06/16 09:03:55;;;;;;;4.15;3.20;;;22.00;66.20;;;;;;5055847;28;20048;-82
2023/06/16 09:06:21;;;;;;;3.55;2.58;;;21.90;1.00;;;;;;5050631;28;20113;-81
2023/06/16 09:08:47;;;;;;;3.35;2.88;;;21.90;1.00;;;;;;5034207;28;20048;-82
2023/06/16 09:11:26;;;;;;;6.47;2.80;;;22.00;1.00;;;;;;5056576;28;20423;-82
2023/06/16 09:13:52;;;;;;;5.53;2.80;;;22.10;99.90;;;;;;5043549;28;20144;-81
2023/06/16 09:16:22;;;;;;;4.63;2.78;;;22.00;99.90;;;;;;5052632;28;20124;-81
2023/06/16 09:18:49;;;;;;;3.85;2.67;;;22.10;99.90;;;;;;5043057;28;20401;-82
2023/06/16 09:21:22;;;;;;;3.40;2.28;;;22.40;99.90;;;;;;5035906;28;20261;-82
2023/06/16 09:23:57;;;;;;;5.57;2.85;;;22.50;99.90;;;;;;5037202;28;20037;-82
2023/06/16 09:26:24;;;;;;;3.97;3.05;;;22.40;99.90;;;;;;5040561;28;20156;-82
2023/06/16 09:28:53;;;;;;;3.75;2.65;;;22.50;99.90;;;;;;5037556;28;20037;-82
2023/06/16 09:31:23;;;;;;;4.10;2.90;;;22.50;99.90;;;;;;5043783;28;20170;-81
2023/06/16 09:33:49;;;;;;;5.07;2.90;;;22.80;99.90;;;;;;5042077;28;20332;-81
2023/06/16 09:36:28;;;;;;;5.22;3.30;;;22.70;99.90;;;;;;5058554;28;20067;-82
2023/06/16 09:38:53;;;;;;;4.32;2.72;;;22.40;99.90;;;;;;5050719;28;20476;-82
2023/06/16 09:41:20;;;;;;;4.18;3.05;;;22.50;99.90;;;;;;5036704;28;20132;-82
2023/06/16 09:43:46;;;;;;;4.00;2.70;;;22.10;99.90;;;;;;5041803;28;20621;-82
2023/06/16 09:46:12;;;;;;;4.97;3.05;;;22.10;99.90;;;;;;5042910;28;20051;-81
2023/06/16 09:48:49;;;;;;;3.97;2.90;;;22.50;99.90;;;;;;5043334;28;20047;-82
2023/06/16 09:51:20;;;;;;;3.53;3.00;;;22.70;99.90;;;;;;5048523;28;20040;-82
2023/06/16 09:53:46;;;;;;;3.95;2.80;;;22.60;99.90;;;;;;5033871;28;20033;-82
2023/06/16 09:56:16;;;;;;;4.25;3.00;;;22.60;99.90;;;;;;5041465;28;20056;-82
2023/06/16 09:58:44;;;;;;;5.78;2.88;;;22.70;99.90;;;;;;5042551;28;20036;-81
2023/06/16 10:01:10;;;;;;;4.03;3.00;;;22.80;99.90;;;;;;5071910;28;20032;-82
2023/06/16 10:03:41;;;;;;;3.08;2.72;;;22.70;99.90;;;;;;5044534;28;20114;-82
2023/06/16 10:06:20;;;;;;;3.97;2.63;;;23.00;99.90;;;;;;5050216;28;20080;-82
2023/06/16 10:08:47;;;;;;;5.28;2.78;;;22.70;99.90;;;;;;5031839;28;20068;-81
2023/06/16 10:11:16;;;;;;;4.97;3.00;;;22.80;99.90;;;;;;5044504;28;20056;-82
2023/06/16 10:13:48;;;;;;;3.53;2.60;;;23.10;99.90;;;;;;5039203;28;20048;-82
2023/06/16 10:16:15;;;;;;;3.63;2.80;;;23.20;99.90;;;;;;5037010;28;20114;-81
2023/06/16 10:18:42;;;;;;;3.95;3.08;;;23.10;99.90;;;;;;5041977;28;20036;-82
2023/06/16 10:21:10;;;;;;;4.07;2.70;;;22.80;99.90;;;;;;5039213;28;20421;-82
2023/06/16 10:23:36;;;;;;;4.88;2.90;;;22.80;99.90;;;;;;5038912;28;20567;-81
2023/06/16 10:26:04;;;;;;;4.57;2.90;;;23.10;99.90;;;;;;5046774;28;20591;-82
2023/06/16 10:28:32;;;;;;;5.32;3.22;;;23.20;99.90;;;;;;5048174;28;20505;-82
2023/06/16 10:30:59;;;;;;;7.55;3.03;;;23.20;99.90;;;;;;5048626;28;20495;-82
2023/06/16 10:33:26;;;;;;;3.95;3.03;;;23.40;99.90;;;;;;5039488;28;20044;-81
2023/06/16 10:35:54;;;;;;;4.63;2.72;;;23.50;99.90;;;;;;5052513;28;20114;-82
2023/06/16 10:38:34;;;;;;;4.55;3.08;;;23.40;99.90;;;;;;5057528;28;20059;-82
2023/06/16 10:41:06;;;;;;;3.92;2.70;;;23.40;99.90;;;;;;5043296;28;20584;-82
2023/06/16 10:43:35;;;;;;;;;;;23.20;99.90;;;;;;5041664;28;20327;-81
2023/06/16 10:46:18;;;;;;;3.90;2.83;;;23.30;99.90;;;;;;5068826;28;19923;-82
2023/06/16 10:49:05;;;;;;;5.13;3.03;;;23.80;99.90;;;;;;5038092;28;20040;-81
2023/06/16 10:51:46;;;;;;;3.72;2.95;;;23.50;99.90;;;;;;5057010;28;20036;-82
2023/06/16 10:54:36;;;;;;;4.32;2.80;;;23.50;99.90;;;;;;5053556;28;20052;-81
2023/06/16 10:57:03;;;;;;;4.25;2.90;;;24.10;99.90;;;;;;5042949;28;20063;-82
2023/06/16 10:59:30;;;;;;;4.38;3.00;;;23.90;99.90;;;;;;5040094;28;20051;-82
2023/06/16 11:01:57;;;;;;;3.85;3.28;;;23.60;99.90;;;;;;5056016;28;20047;-81
2023/06/16 11:04:24;;;;;;;5.15;3.30;;;23.60;99.90;;;;;;5050600;28;20749;-82
2023/06/16 11:07:07;;;;;;;4.40;3.15;;;23.80;99.90;;;;;;5053683;28;20377;-82
2023/06/16 11:09:32;;;;;;;4.32;3.10;;;23.80;99.90;;;;;;5056749;28;20544;-81
2023/06/16 11:12:03;;;;;;;4.60;3.35;;;23.70;99.90;;;;;;5048470;28;20078;-81
2023/06/16 11:14:29;;;;;;;4.65;3.25;;;24.10;99.90;;;;;;5052941;28;20064;-81
2023/06/16 11:16:55;;;;;;;7.90;3.10;;;23.90;99.90;;;;;;5038705;28;20271;-81
2023/06/16 11:19:21;;;;;;;3.65;3.05;;;23.70;99.90;;;;;;5034292;28;20479;-81
2023/06/16 11:21:47;;;;;;;4.22;3.30;;;24.00;99.90;;;;;;5050256;28;20047;-81
2023/06/16 11:24:13;;;;;;;4.15;2.85;;;23.90;99.90;;;;;;5050425;28;20043;-82
2023/06/16 11:26:39;;;;;;;4.07;2.85;;;24.20;99.90;;;;;;5053886;28;20060;-82
2023/06/16 11:29:06;;;;;;;5.53;3.08;;;24.50;99.90;;;;;;5052435;28;20054;-81
2023/06/16 11:31:35;;;;;;;5.63;2.97;;;24.20;99.90;;;;;;5055102;28;20538;-82
2023/06/16 11:34:02;;;;;;;3.45;2.88;;;24.10;99.90;;;;;;5058342;28;20045;-81
2023/06/16 11:36:28;;;;;;;3.80;2.78;;;24.50;99.90;;;;;;5039951;28;20086;-81
2023/06/16 11:38:58;;;;;;;4.07;2.95;;;24.40;99.90;;;;;;5044276;28;20048;-82
2023/06/16 11:41:29;;;;;;;5.25;2.70;;;24.70;99.90;;;;;;5051756;28;20412;-82
2023/06/16 11:43:55;;;;;;;3.75;2.70;;;24.30;99.90;;;;;;5042542;28;20499;-81
2023/06/16 11:46:26;;;;;;;3.38;2.70;;;24.20;99.90;;;;;;5036881;28;20071;-81
2023/06/16 11:48:53;;;;;;;3.33;2.70;;;24.20;99.90;;;;;;5042463;28;20039;-82
2023/06/16 11:51:19;;;;;;;2.78;2.50;;;23.90;99.90;;;;;;5036597;28;20407;-81
2023/06/16 11:53:46;;;;;;;3.72;2.92;;;24.10;99.90;;;;;;5037475;28;20067;-81
2023/06/16 11:56:13;;;;;;;4.88;2.60;;;24.30;99.90;;;;;;5058214;28;20487;-81
2023/06/16 11:58:42;;;;;;;3.35;2.80;;;24.60;99.90;;;;;;5042079;28;20037;-81
2023/06/16 12:01:12;;;;;;;8.07;2.90;;;24.60;99.90;;;;;;5038524;28;20039;-81
2023/06/16 12:03:39;;;;;;;5.63;2.65;;;24.60;99.90;;;;;;5042907;28;20044;-81
2023/06/16 12:06:07;;;;;;;3.67;2.60;;;24.30;99.90;;;;;;5040644;28;20055;-82
2023/06/16 12:08:35;;;;;;;4.72;2.50;;;24.40;99.90;;;;;;5045852;28;20458;-81
2023/06/16 12:11:01;;;;;;;4.40;2.70;;;24.10;99.90;;;;;;5055740;28;20044;-82
2023/06/16 12:13:26;;;;;;;4.07;2.58;;;24.10;99.90;;;;;;5056314;28;20413;-81
2023/06/16 12:15:52;;;;;;;3.20;2.55;;;24.50;99.90;;;;;;5064509;28;20036;-82
2023/06/16 12:18:18;;;;;;;4.13;2.28;;;24.40;99.90;;;;;;5060439;28;20024;-82
2023/06/16 12:20:45;;;;;;;3.08;2.45;;;24.30;99.90;;;;;;5044378;28;20445;-82
2023/06/16 12:23:11;;;;;;;3.63;2.45;;;24.20;99.90;;;;;;5036692;28;20043;-81
2023/06/16 12:25:37;;;;;;;2.70;2.40;;;24.90;99.90;;;;;;5052587;28;20040;-82
2023/06/16 12:28:03;;;;;;;3.50;2.67;;;24.70;99.90;;;;;;5060567;28;20043;-82
2023/06/16 12:30:35;;;;;;;2.85;2.55;;;24.70;99.90;;;;;;5048462;28;20483;-82
2023/06/16 12:33:12;;;;;;;7.40;2.92;;;24.30;99.90;;;;;;5044138;28;20097;-81
2023/06/16 12:35:41;;;;;;;4.35;2.67;;;24.70;99.90;;;;;;5045185;28;20062;-81
2023/06/16 12:38:07;;;;;;;3.70;2.60;;;24.80;99.90;;;;;;5039083;28;20076;-81
2023/06/16 12:40:33;;;;;;;5.25;2.80;;;25.00;99.90;;;;;;5068370;28;20480;-82